Time,TemperatureF,DewpointF,PressureIn,WindDirection,WindDirectionDegrees,WindSpeedMPH,WindSpeedGustMPH,Humidity,HourlyPrecipIn,Conditions,Clouds,dailyrainin,SolarRadiationWatts/m^2,SoftwareType,DateUTC
2014-01-01 00:12:00,74.0,70.0,-100.00,NE,54,12.0,21.0,86,0.00,,,0.00,0.000000,,2014-01-01 05:12:00,
2014-01-01 00:22:00,74.0,70.0,-100.00,NE,54,12.0,21.0,86,0.00,,,0.00,0.000000,,2014-01-01 05:22:00,
2014-01-01 00:33:00,74.0,70.0,-100.00,NE,54,12.0,21.0,86,0.00,,,0.00,0.000000,,2014-01-01 05:33:00,
2014-01-01 01:12:00,74.0,70.0,-100.00,ENE,72,9.0,21.0,88,-99.99,,,-99.99,0.000000,,2014-01-01 06:12:00,
2014-01-01 01:22:00,74.0,70.0,-100.00,ENE,72,9.0,21.0,88,-99.99,,,-99.99,0.000000,,2014-01-01 06:22:00,
2014-01-01 01:33:00,74.0,70.0,-100.00,ENE,72,9.0,21.0,88,-99.99,,,-99.99,0.000000,,2014-01-01 06:33:00,
2014-01-01 02:12:00,74.0,71.0,-100.00,ENE,71,9.0,22.0,89,0.00,,,-99.99,0.000000,,2014-01-01 07:12:00,
2014-01-01 02:22:00,74.0,71.0,-100.00,ENE,71,9.0,22.0,89,0.00,,,-99.99,0.000000,,2014-01-01 07:22:00,
2014-01-01 02:33:00,74.0,71.0,-100.00,ENE,71,9.0,22.0,89,0.00,,,-99.99,0.000000,,2014-01-01 07:33:00,
2014-01-01 03:12:00,74.0,71.0,-100.00,ENE,76,11.0,19.0,90,0.00,,,-99.99,0.000000,,2014-01-01 08:12:00,
2014-01-01 03:22:00,74.0,71.0,-100.00,ENE,76,11.0,19.0,90,0.00,,,-99.99,0.000000,,2014-01-01 08:22:00,
2014-01-01 03:32:00,74.0,71.0,-100.00,ENE,76,11.0,19.0,90,0.00,,,-99.99,0.000000,,2014-01-01 08:32:00,
2014-01-01 04:12:00,74.0,72.0,-100.00,East,82,8.0,16.0,93,0.00,,,-99.99,0.000000,,2014-01-01 09:12:00,
2014-01-01 04:22:00,74.0,72.0,-100.00,East,82,8.0,16.0,93,0.00,,,-99.99,0.000000,,2014-01-01 09:22:00,
2014-01-01 04:33:00,74.0,72.0,-100.00,East,82,8.0,16.0,93,0.00,,,-99.99,0.000000,,2014-01-01 09:33:00,
2014-01-01 05:12:00,75.0,73.0,-100.00,East,93,7.0,13.0,94,0.00,,,-99.99,0.000000,,2014-01-01 10:12:00,
2014-01-01 05:23:00,75.0,73.0,-100.00,East,93,7.0,13.0,94,0.00,,,-99.99,0.000000,,2014-01-01 10:23:00,
2014-01-01 05:33:00,75.0,73.0,-100.00,East,93,7.0,13.0,94,0.00,,,-99.99,0.000000,,2014-01-01 10:33:00,
2014-01-01 06:12:00,75.0,73.0,-100.00,East,97,5.0,13.0,93,0.00,,,-99.99,0.000000,,2014-01-01 11:12:00,
2014-01-01 06:22:00,75.0,73.0,-100.00,East,97,5.0,13.0,93,0.00,,,-99.99,0.000000,,2014-01-01 11:22:00,
2014-01-01 06:33:00,75.0,73.0,-100.00,East,97,5.0,13.0,93,0.00,,,-99.99,0.000000,,2014-01-01 11:33:00,
2014-01-01 07:12:00,75.0,72.0,-100.00,ESE,119,4.0,15.0,91,0.00,,,-99.99,0.000000,,2014-01-01 12:12:00,
2014-01-01 07:22:00,75.0,72.0,-100.00,ESE,119,4.0,15.0,91,0.00,,,-99.99,0.000000,,2014-01-01 12:22:00,
2014-01-01 07:32:00,75.0,72.0,-100.00,ESE,119,4.0,15.0,91,0.00,,,-99.99,0.000000,,2014-01-01 12:32:00,
2014-01-01 08:12:00,77.0,74.0,-100.00,ESE,109,5.0,11.0,89,0.00,,,-99.99,13.000000,,2014-01-01 13:12:00,
2014-01-01 08:22:00,77.0,74.0,-100.00,ESE,109,5.0,11.0,89,0.00,,,-99.99,13.000000,,2014-01-01 13:22:00,
2014-01-01 08:32:00,77.0,74.0,-100.00,ESE,109,5.0,11.0,89,0.00,,,-99.99,13.000000,,2014-01-01 13:32:00,
2014-01-01 09:12:00,80.0,74.0,-100.00,ESE,109,5.0,10.0,81,0.00,,,-99.99,145.000000,,2014-01-01 14:12:00,
2014-01-01 09:22:00,80.0,74.0,-100.00,ESE,109,5.0,10.0,81,0.00,,,-99.99,145.000000,,2014-01-01 14:22:00,
2014-01-01 09:32:00,80.0,74.0,-100.00,ESE,109,5.0,10.0,81,0.00,,,-99.99,145.000000,,2014-01-01 14:32:00,
2014-01-01 10:11:00,81.0,74.0,-100.00,ESE,107,6.0,11.0,80,0.00,,,-99.99,238.000000,,2014-01-01 15:11:00,
2014-01-01 10:22:00,81.0,74.0,-100.00,ESE,107,6.0,11.0,80,0.00,,,-99.99,238.000000,,2014-01-01 15:22:00,
2014-01-01 10:33:00,81.0,74.0,-100.00,ESE,107,6.0,11.0,80,0.00,,,-99.99,238.000000,,2014-01-01 15:33:00,
2014-01-01 11:13:00,82.0,74.0,-100.00,ESE,110,6.0,12.0,78,0.00,,,-99.99,391.000000,,2014-01-01 16:13:00,
2014-01-01 11:23:00,82.0,74.0,-100.00,ESE,110,6.0,12.0,78,0.00,,,-99.99,391.000000,,2014-01-01 16:23:00,
2014-01-01 11:33:00,82.0,74.0,-100.00,ESE,110,6.0,12.0,78,0.00,,,-99.99,391.000000,,2014-01-01 16:33:00,
2014-01-01 12:12:00,82.0,74.0,-100.00,ESE,103,6.0,15.0,77,0.00,,,-99.99,370.000000,,2014-01-01 17:12:00,
2014-01-01 12:22:00,82.0,74.0,-100.00,ESE,103,6.0,15.0,77,0.00,,,-99.99,370.000000,,2014-01-01 17:22:00,
2014-01-01 12:33:00,82.0,74.0,-100.00,ESE,103,6.0,15.0,77,0.00,,,-99.99,370.000000,,2014-01-01 17:33:00,
2014-01-01 13:12:00,85.0,74.0,-100.00,SE,137,8.0,16.0,69,0.00,,,-99.99,538.000000,,2014-01-01 18:12:00,
2014-01-01 13:22:00,85.0,74.0,-100.00,SE,137,8.0,16.0,69,0.00,,,-99.99,538.000000,,2014-01-01 18:22:00,
2014-01-01 13:32:00,85.0,74.0,-100.00,SE,137,8.0,16.0,69,0.00,,,-99.99,538.000000,,2014-01-01 18:32:00,
2014-01-01 14:12:00,84.0,72.0,-100.00,SE,144,9.0,16.0,68,0.00,,,-99.99,505.000000,,2014-01-01 19:12:00,
2014-01-01 14:22:00,84.0,72.0,-100.00,SE,144,9.0,16.0,68,0.00,,,-99.99,505.000000,,2014-01-01 19:22:00,
2014-01-01 14:33:00,84.0,72.0,-100.00,SE,144,9.0,16.0,68,0.00,,,-99.99,505.000000,,2014-01-01 19:33:00,
2014-01-01 15:12:00,85.0,73.0,-100.00,SE,142,8.0,17.0,68,0.00,,,-99.99,278.000000,,2014-01-01 20:12:00,
2014-01-01 15:22:00,85.0,73.0,-100.00,SE,142,8.0,17.0,68,0.00,,,-99.99,278.000000,,2014-01-01 20:22:00,
2014-01-01 15:32:00,85.0,73.0,-100.00,SE,142,8.0,17.0,68,0.00,,,-99.99,278.000000,,2014-01-01 20:32:00,
2014-01-01 16:11:00,84.0,73.0,-100.00,SE,146,8.0,18.0,70,0.00,,,-99.99,307.000000,,2014-01-01 21:11:00,
2014-01-01 16:22:00,84.0,73.0,-100.00,SE,146,8.0,18.0,70,0.00,,,-99.99,307.000000,,2014-01-01 21:22:00,
2014-01-01 16:33:00,84.0,73.0,-100.00,SE,146,8.0,18.0,70,0.00,,,-99.99,307.000000,,2014-01-01 21:33:00,
2014-01-01 17:13:00,82.0,73.0,-100.00,SE,134,7.0,16.0,74,0.00,,,-99.99,113.000000,,2014-01-01 22:13:00,
2014-01-01 17:23:00,82.0,73.0,-100.00,SE,134,7.0,16.0,74,0.00,,,-99.99,113.000000,,2014-01-01 22:23:00,
2014-01-01 17:33:00,82.0,73.0,-100.00,SE,134,7.0,16.0,74,0.00,,,-99.99,113.000000,,2014-01-01 22:33:00,
2014-01-01 18:12:00,79.0,73.0,-100.00,SE,126,5.0,12.0,82,0.00,,,-99.99,62.000000,,2014-01-01 23:12:00,
2014-01-01 18:22:00,79.0,73.0,-100.00,SE,126,5.0,12.0,82,0.00,,,-99.99,62.000000,,2014-01-01 23:22:00,
2014-01-01 18:32:00,79.0,73.0,-100.00,SE,126,5.0,12.0,82,0.00,,,-99.99,62.000000,,2014-01-01 23:32:00,
2014-01-01 19:11:00,77.0,73.0,-100.00,SE,133,5.0,9.0,87,0.00,,,-99.99,2.000000,,2014-01-02 00:11:00,
2014-01-01 19:22:00,77.0,73.0,-100.00,SE,133,5.0,9.0,87,0.00,,,-99.99,2.000000,,2014-01-02 00:22:00,
2014-01-01 19:32:00,77.0,73.0,-100.00,SE,133,5.0,9.0,87,0.00,,,-99.99,2.000000,,2014-01-02 00:32:00,
2014-01-01 20:11:00,77.0,72.0,-100.00,SE,129,4.0,9.0,86,0.00,,,-99.99,0.000000,,2014-01-02 01:11:00,
2014-01-01 20:22:00,77.0,72.0,-100.00,SE,129,4.0,9.0,86,0.00,,,-99.99,0.000000,,2014-01-02 01:22:00,
2014-01-01 20:32:00,77.0,72.0,-100.00,SE,129,4.0,9.0,86,0.00,,,-99.99,0.000000,,2014-01-02 01:32:00,
2014-01-01 21:12:00,77.0,71.0,-100.00,SE,134,4.0,9.0,82,0.00,,,-99.99,0.000000,,2014-01-02 02:12:00,
2014-01-01 21:22:00,77.0,71.0,-100.00,SE,134,4.0,9.0,82,0.00,,,-99.99,0.000000,,2014-01-02 02:22:00,
2014-01-01 21:32:00,77.0,71.0,-100.00,SE,134,4.0,9.0,82,0.00,,,-99.99,0.000000,,2014-01-02 02:32:00,
2014-01-01 22:12:00,76.0,71.0,-100.00,SE,138,5.0,10.0,84,0.00,,,-99.99,0.000000,,2014-01-02 03:12:00,
2014-01-01 22:22:00,76.0,71.0,-100.00,SE,138,5.0,10.0,84,0.00,,,-99.99,0.000000,,2014-01-02 03:22:00,
2014-01-01 22:33:00,76.0,71.0,-100.00,SE,138,5.0,10.0,84,0.00,,,-99.99,0.000000,,2014-01-02 03:33:00,
2014-01-01 23:13:00,76.0,69.0,-100.00,SE,132,6.0,12.0,80,0.00,,,-99.99,0.000000,,2014-01-02 04:13:00,
2014-01-01 23:23:00,76.0,69.0,-100.00,SE,132,6.0,12.0,80,0.00,,,-99.99,0.000000,,2014-01-02 04:23:00,
2014-01-01 23:33:00,76.0,69.0,-100.00,SE,132,6.0,12.0,80,0.00,,,-99.99,0.000000,,2014-01-02 04:33:00,